Latest Weather Observations for West Wyalong

IDN60801

Issued at 11:03 am EST Sunday 31 July 2016 (issued every 30 minutes, with the page automatically refreshed every 10 minutes)

About weather observations | Map of weather stations | Latest weather observations for NSW | Other Formats
Station Details ID: 050017 Name: WEST WYALONG AIRPORT AWS Lat: -33.94 Lon: 147.20 Height: 257.0 m
Data from the previous 72 hours. | See also: Recent months at West Wyalong
Date/Time
EST
Temp
°C
App
Temp
°C
Dew
Point
°C
Rel
Hum
%
Delta-T
°C
Wind Press
QNH
hPa
Press
MSL
hPa
Rain since
9am
mm
Dir  Spd
km/h
Gust
km/h
Spd
kts
Gust
kts
31/11:00am 13.1 11.2 9.0 76 2.1 NNW 9 13 5 7 1019.6 1020.0 0.0
31/10:30am 12.4 10.2 9.2 81 1.6 NNW 11 15 6 8 1020.1 1020.5 0.0
31/10:00am 10.8 9.1 8.2 84 1.3 N 7 13 4 7 1020.2 1020.6 0.0
31/09:30am 10.0 8.3 8.4 90 0.8 N 7 9 4 5 1020.4 1020.9 0.0
31/09:00am 9.5 7.3 7.9 90 0.8 NNW 9 13 5 7 1020.2 1020.6 0.0
31/08:30am 8.6 6.7 7.7 94 0.4 N 7 11 4 6 1020.2 1020.6 0.0
31/08:00am 7.9 6.1 7.1 95 0.4 N 6 7 3 4 1020.0 1020.4 0.0
31/07:30am 7.4 5.5 6.8 96 0.3 N 6 6 3 3 1019.5 1019.9 0.0
31/07:00am 7.2 5.3 6.6 96 0.3 N 6 7 3 4 1019.4 1019.8 0.0
31/06:30am 7.4 5.5 6.7 95 0.3 W 6 7 3 4 1019.1 1019.5 0.0
31/06:00am 7.3 4.4 6.7 96 0.3 NNE 11 13 6 7 1018.3 1018.7 0.0
31/05:30am 7.2 4.3 6.6 96 0.3 N 11 15 6 8 1018.4 1018.8 0.0
31/05:00am 6.8 4.9 6.5 98 0.1 NNE 6 11 3 6 1018.6 1019.0 0.0
31/04:30am 6.6 5.8 6.5 99 0.0 CALM 0 0 0 0 1018.9 1019.3 0.0
31/04:00am 6.2 5.3 6.1 99 0.0 CALM 0 0 0 0 1018.7 1019.1 0.0
31/03:30am 5.6 4.5 5.3 98 0.1 CALM 0 0 0 0 1018.7 1019.1 0.0
31/03:00am 5.5 4.4 5.2 98 0.1 CALM 0 0 0 0 1019.2 1019.6 0.0
31/02:30am 5.6 4.5 5.2 97 0.2 CALM 0 0 0 0 1019.6 1020.0 0.0
31/02:00am 5.5 4.4 5.1 97 0.2 CALM 0 0 0 0 1019.7 1020.1 0.0
31/01:30am 5.8 4.8 5.4 97 0.2 CALM 0 0 0 0 1020.0 1020.4 0.0
31/01:00am 6.3 5.4 5.9 97 0.2 CALM 0 0 0 0 1020.1 1020.5 0.0
31/12:30am 6.4 5.5 6.0 97 0.2 CALM 0 0 0 0 1020.4 1020.9 0.0
31/12:00am 6.4 5.4 5.7 95 0.3 CALM 0 0 0 0 1020.7 1021.2 0.0
 
Date/Time
EST
Temp
°C
App
Temp
°C
Dew
Point
°C
Rel
Hum
%
Delta-T
°C
Wind Press
QNH
hPa
Press
MSL
hPa
Rain since
9am
mm
Dir  Spd
km/h
Gust
km/h
Spd
kts
Gust
kts
30/11:30pm 7.2 6.5 6.8 97 0.2 CALM 0 0 0 0 1020.4 1020.9 0.0
30/11:00pm 6.8 6.0 6.5 98 0.1 CALM 0 0 0 0 1020.0 1020.4 0.0
30/10:30pm 6.5 5.5 5.8 95 0.3 CALM 0 0 0 0 1020.3 1020.7 0.0
30/10:00pm 6.6 5.7 6.0 96 0.3 CALM 0 0 0 0 1020.5 1021.0 0.0
30/09:30pm 6.8 5.9 6.2 96 0.3 CALM 0 0 0 0 1020.6 1021.1 0.0
30/09:00pm 6.7 5.8 6.1 96 0.3 CALM 0 0 0 0 1020.3 1020.7 0.0
30/08:30pm 6.6 5.7 6.2 97 0.2 CALM 0 0 0 0 1020.5 1021.0 0.0
30/08:00pm 6.1 5.0 4.9 92 0.5 CALM 0 0 0 0 1020.5 1021.0 0.0
30/07:30pm 6.7 5.7 5.7 93 0.5 CALM 0 0 0 0 1020.7 1021.2 0.0
30/07:00pm 7.7 6.9 6.3 91 0.6 CALM 0 0 0 0 1020.7 1021.2 0.0
30/06:30pm 9.0 8.4 7.3 89 0.8 CALM 0 0 0 0 1020.9 1021.4 0.0
30/06:00pm 9.9 9.4 7.7 86 1.1 CALM 0 0 0 0 1020.7 1021.2 0.0
30/05:30pm 10.6 9.9 6.9 78 1.8 CALM 0 0 0 0 1020.8 1021.3 0.0
30/05:00pm 10.8 10.0 6.6 75 2.0 CALM 0 0 0 0 1020.9 1021.4 0.0
30/04:30pm 11.2 10.4 6.5 73 2.2 CALM 0 0 0 0 1020.9 1021.4 0.0
30/04:00pm 11.3 9.4 6.6 73 2.2 SSE 6 9 3 5 1020.8 1021.3 0.0
30/03:30pm 11.6 10.4 6.3 70 2.5 SE 2 7 1 4 1021.2 1021.6 0.0
30/03:00pm 12.0 10.4 6.3 68 2.7 SE 4 11 2 6 1021.3 1021.7 0.0
30/02:30pm 11.3 9.2 6.6 73 2.3 SE 7 11 4 6 1021.7 1022.1 0.0
30/02:00pm 11.5 9.3 6.0 69 2.6 SE 7 15 4 8 1022.0 1022.4 0.0
30/01:30pm 11.2 9.6 6.3 72 2.3 WNW 4 7 2 4 1022.2 1022.6 0.0
30/01:00pm 10.9 7.9 6.1 72 2.3 ESE 11 17 6 9 1022.4 1022.8 0.0
30/12:30pm 10.5 8.5 6.1 74 2.1 E 6 13 3 7 1023.0 1023.4 0.0
30/12:00pm 10.5 8.5 6.1 74 2.1 SSE 6 11 3 6 1023.5 1023.9 0.0
30/11:30am 10.4 9.1 5.8 73 2.2 SE 2 17 1 9 1024.0 1024.5 0.0
30/11:00am 10.3 8.2 5.7 73 2.1 SSE 6 15 3 8 1024.3 1024.8 0.0
30/10:30am 9.8 7.0 5.0 72 2.2 S 9 13 5 7 1024.6 1025.1 0.0
30/10:00am 9.8 7.4 5.4 74 2.0 NE 7 11 4 6 1024.5 1025.0 0.0
30/09:30am 9.6 6.9 5.4 75 1.9 E 9 15 5 8 1024.7 1025.2 0.0
30/09:00am 9.3 6.8 4.9 74 2.0 SSE 7 11 4 6 1025.0 1025.5 0.0
30/08:30am 9.2 6.9 5.0 75 1.9 SE 6 9 3 5 1024.7 1025.2 0.0
30/08:00am 8.9 6.1 5.1 77 1.7 SSE 9 13 5 7 1024.5 1025.0 0.0
30/07:30am 8.7 5.9 5.1 78 1.6 SE 9 11 5 6 1024.3 1024.8 0.0
30/07:00am 8.6 6.1 5.0 78 1.6 SE 7 9 4 5 1024.2 1024.7 0.0
30/06:30am 8.8 6.3 4.8 76 1.8 SE 7 11 4 6 1024.0 1024.5 0.0
30/06:00am 8.6 6.2 5.4 80 1.5 SSE 7 11 4 6 1023.9 1024.4 0.0
30/05:30am 8.7 6.3 5.3 79 1.6 S 7 11 4 6 1023.8 1024.3 0.0
30/05:00am 9.0 6.2 5.2 77 1.7 SSE 9 13 5 7 1023.7 1024.2 0.0
30/04:30am 8.9 6.4 4.9 76 1.8 SSW 7 9 4 5 1023.7 1024.2 0.0
30/04:00am 9.1 6.7 5.1 76 1.8 SE 7 13 4 7 1023.7 1024.2 0.0
30/03:30am 8.7 7.3 5.4 80 1.5 SE 2 9 1 5 1023.8 1024.3 0.0
30/03:00am 8.5 7.2 5.8 83 1.2 SE 2 7 1 4 1023.8 1024.3 0.0
30/02:30am 8.4 7.4 5.7 83 1.2 CALM 0 0 0 0 1024.1 1024.6 0.0
30/02:00am 8.3 7.3 5.8 84 1.1 CALM 0 0 0 0 1024.3 1024.8 0.0
30/01:30am 8.4 7.4 5.7 83 1.2 CALM 0 6 0 3 1024.4 1024.9 0.0
30/01:00am 8.4 6.7 5.7 83 1.2 SW 4 7 2 4 1024.5 1025.0 0.0
30/12:30am 8.4 7.3 5.3 81 1.4 CALM 0 0 0 0 1024.5 1025.0 0.0
30/12:00am 8.6 7.6 5.5 81 1.4 CALM 0 0 0 0 1024.6 1025.1 0.0
 
Date/Time
EST
Temp
°C
App
Temp
°C
Dew
Point
°C
Rel
Hum
%
Delta-T
°C
Wind Press
QNH
hPa
Press
MSL
hPa
Rain since
9am
mm
Dir  Spd
km/h
Gust
km/h
Spd
kts
Gust
kts
29/11:30pm 8.6 6.3 5.5 81 1.4 WSW 7 9 4 5 1024.9 1025.4 0.0
29/11:00pm 8.8 6.0 5.2 78 1.6 WSW 9 11 5 6 1024.8 1025.3 0.0
29/10:30pm 8.8 6.4 5.2 78 1.6 WSW 7 11 4 6 1024.8 1025.3 0.0
29/10:00pm 8.8 6.9 5.0 77 1.7 WSW 4 6 2 3 1024.7 1025.2 0.0
29/09:30pm 8.8 6.3 5.0 77 1.7 WSW 7 7 4 4 1025.3 1025.7 0.0
29/09:00pm 8.9 6.5 5.1 77 1.7 SW 7 9 4 5 1025.0 1025.5 0.0
29/08:30pm 9.0 7.0 4.4 73 2.1 WSW 4 7 2 4 1024.9 1025.4 0.0
29/08:00pm 9.0 6.7 4.8 75 1.9 SW 6 9 3 5 1024.8 1025.3 0.0
29/07:30pm 9.0 6.1 4.6 74 2.0 SW 9 9 5 5 1024.5 1025.0 0.0
29/07:00pm 9.1 6.2 4.7 74 2.0 SW 9 11 5 6 1024.4 1024.9 0.0
29/06:30pm 9.4 5.6 4.0 69 2.4 WSW 13 17 7 9 1024.4 1024.9 0.0
29/06:00pm 9.4 6.5 4.8 73 2.1 SW 9 13 5 7 1023.9 1024.4 0.0
29/05:30pm 9.7 6.4 4.3 69 2.4 SW 11 15 6 8 1023.6 1024.0 0.0
29/05:00pm 10.0 6.7 4.4 68 2.5 WSW 11 15 6 8 1023.6 1024.0 0.0
29/04:30pm 10.2 7.3 4.4 67 2.6 SSW 9 15 5 8 1023.5 1023.9 0.0
29/04:00pm 10.4 6.9 3.7 63 3.0 SW 11 17 6 9 1023.6 1024.0 0.0
29/03:30pm 10.9 7.1 3.7 61 3.2 WSW 13 20 7 11 1023.7 1024.2 0.0
29/03:00pm 10.7 7.0 4.2 64 2.9 WSW 13 20 7 11 1023.9 1024.4 0.0
29/02:30pm 10.3 6.1 4.0 65 2.8 SW 15 20 8 11 1023.7 1024.2 0.0
29/02:00pm 10.2 5.7 4.4 67 2.6 SW 17 22 9 12 1023.9 1024.4 0.0
29/01:30pm 9.9 5.9 4.7 70 2.4 WSW 15 20 8 11 1024.2 1024.7 0.0
29/01:00pm 9.9 5.8 4.1 67 2.6 SW 15 20 8 11 1024.5 1025.0 0.0
29/12:30pm 9.9 5.7 3.9 66 2.7 SW 15 20 8 11 1025.0 1025.5 0.0
29/12:00pm 9.9 5.3 3.9 66 2.7 SW 17 26 9 14 1025.6 1026.0 0.0
29/11:30am 9.8 4.9 4.0 67 2.6 SW 19 26 10 14 1026.1 1026.5 0.0
29/11:00am 9.3 4.2 4.3 71 2.2 WSW 20 30 11 16 1026.4 1026.8 0.0
29/10:30am 9.5 5.5 5.1 74 2.0 WSW 15 19 8 10 1026.6 1027.0 0.0
29/10:00am 9.1 5.4 6.2 82 1.3 WSW 15 19 8 10 1026.7 1027.1 0.0
29/09:30am 8.9 5.1 5.6 80 1.5 WSW 15 20 8 11 1026.7 1027.1 0.0
29/09:00am 8.7 5.3 5.8 82 1.3 WSW 13 17 7 9 1026.6 1027.0 0.0
29/08:30am 8.6 5.4 5.2 79 1.5 WSW 11 13 6 7 1026.5 1026.9 0.0
29/08:00am 8.4 5.6 5.3 81 1.4 W 9 13 5 7 1026.5 1026.9 0.0
29/07:30am 8.2 5.8 5.3 82 1.3 WSW 7 11 4 6 1026.4 1026.8 0.0
29/07:00am 8.3 5.4 4.7 78 1.6 SW 9 11 5 6 1026.5 1026.9 0.0
29/06:30am 8.3 5.8 4.7 78 1.6 WSW 7 9 4 5 1026.3 1026.7 0.0
29/06:00am 8.2 5.0 5.1 81 1.4 SW 11 13 6 7 1026.0 1026.4 0.0
29/05:30am 7.9 5.6 5.7 86 1.0 SW 7 9 4 5 1025.8 1026.2 0.0
29/05:00am 7.4 6.5 6.2 92 0.5 CALM 0 4 0 2 1025.6 1026.0 0.0
29/04:30am 7.3 6.4 6.2 93 0.5 CALM 0 0 0 0 1025.5 1025.9 0.0
29/04:00am 7.2 6.3 6.0 92 0.5 CALM 0 6 0 3 1025.3 1025.7 0.0
29/03:30am 6.9 5.6 5.8 93 0.5 W 2 7 1 4 1025.4 1025.8 0.0
29/03:00am 6.7 5.0 5.7 93 0.4 W 4 6 2 3 1025.5 1025.9 0.0
29/02:30am 6.7 4.3 5.2 90 0.7 NW 7 9 4 5 1025.7 1026.1 0.0
29/02:00am 7.5 4.8 5.6 88 0.9 W 9 11 5 6 1026.0 1026.4 0.0
29/01:30am 7.9 5.6 5.9 87 0.9 W 7 11 4 6 1026.3 1026.7 0.0
29/01:00am 7.8 5.5 5.8 87 0.9 WNW 7 9 4 5 1026.4 1026.8 0.0
29/12:30am 7.9 5.6 5.9 87 0.9 WNW 7 9 4 5 1026.4 1026.8 0.0
29/12:00am 7.8 5.7 5.8 87 0.9 W 6 7 3 4 1026.6 1027.0 0.0
 
Date/Time
EST
Temp
°C
App
Temp
°C
Dew
Point
°C
Rel
Hum
%
Delta-T
°C
Wind Press
QNH
hPa
Press
MSL
hPa
Rain since
9am
mm
Dir  Spd
km/h
Gust
km/h
Spd
kts
Gust
kts
28/11:30pm 7.9 5.6 5.7 86 1.0 W 7 9 4 5 1026.7 1027.1 0.0
28/11:00pm 8.0 5.0 5.8 86 1.0 W 11 13 6 7 1026.9 1027.4 0.0
28/10:30pm 8.4 5.0 5.9 84 1.2 WSW 13 17 7 9 1027.0 1027.5 0.0
28/10:00pm 8.3 6.3 6.1 86 1.0 WSW 6 15 3 8 1027.3 1027.8 0.0
28/09:30pm 8.1 5.9 6.4 89 0.8 WNW 7 9 4 5 1027.4 1027.9 0.0
28/09:00pm 8.1 6.9 6.4 89 0.8 WSW 2 7 1 4 1027.5 1028.0 0.0
28/08:30pm 8.0 6.4 6.3 89 0.8 SSW 4 9 2 5 1027.6 1028.1 0.0
28/08:00pm 8.2 4.9 6.2 87 0.9 SSW 13 17 7 9 1027.5 1028.0 0.0
28/07:30pm 8.3 5.3 5.9 85 1.1 SW 11 13 6 7 1027.5 1028.0 0.0
28/07:00pm 8.4 5.8 5.9 84 1.1 WSW 9 11 5 6 1027.5 1028.0 0.0
28/06:30pm 8.4 4.6 5.9 84 1.2 WSW 15 20 8 11 1027.5 1028.0 0.0
28/06:00pm 8.5 5.0 5.4 81 1.4 SW 13 17 7 9 1027.2 1027.7 0.0
28/05:30pm 8.7 4.1 5.4 80 1.5 WSW 19 26 10 14 1027.1 1027.6 0.0
28/05:00pm 9.1 5.3 5.7 79 1.6 WSW 15 20 8 11 1027.1 1027.6 0.0
28/04:30pm 9.3 5.0 5.3 76 1.8 WSW 17 22 9 12 1026.9 1027.4 0.0
28/04:00pm 9.4 4.7 5.2 75 1.9 WSW 19 26 10 14 1026.7 1027.1 0.0
28/03:30pm 9.8 5.6 5.6 75 1.9 WSW 17 20 9 11 1026.8 1027.2 0.0
28/03:00pm 9.8 5.5 5.4 74 2.0 WSW 17 24 9 13 1026.8 1027.2 0.0
28/02:30pm 10.2 5.9 5.4 72 2.2 WSW 17 24 9 13 1026.7 1027.1 0.0
28/02:00pm 10.2 5.8 4.8 69 2.4 SW 17 22 9 12 1026.9 1027.4 0.0
28/01:30pm 10.5 6.1 4.9 68 2.6 SW 17 20 9 11 1027.1 1027.6 0.0
28/01:00pm 11.1 6.8 5.4 68 2.6 SW 17 24 9 13 1027.3 1027.8 0.0
28/12:30pm 11.4 6.5 5.3 66 2.8 SW 20 30 11 16 1027.4 1027.9 0.0
28/12:00pm 11.4 6.7 5.3 66 2.8 SW 19 28 10 15 1027.8 1028.3 0.0
28/11:30am 11.4 7.0 6.7 73 2.3 WSW 19 24 10 13 1028.2 1028.7 0.0

Other Formats:

Comma delimited format used in spreadsheet applications
http://www.bom.gov.au/fwo/IDN60801/IDN60801.95709.axf

JavaScript Object Notation format (JSON) in row-major order
http://www.bom.gov.au/fwo/IDN60801/IDN60801.95709.json